Time;durP1;ratioP1;P1;durP2;ratioP2;P2;SDS_P1;SDS_P2;PMS_P1;PMS_P2;Temp;Humidity;BMP_temperature;BMP_pressure;BME280_temperature;BME280_humidity;BME280_pressure;Samples;Min_cycle;Max_cycle;Signal;HPM_P1;HPM_P2
2022/07/01 00:01:29;;;;;;;5.55;3.65;;;22.60;90.40;;;;;;5037863;28;20511;-87
2022/07/01 00:03:55;;;;;;;3.72;3.42;;;22.60;90.30;;;;;;5037182;28;20032;-87
2022/07/01 00:06:21;;;;;;;4.28;3.88;;;22.60;90.40;;;;;;5037403;28;20032;-86
2022/07/01 00:08:47;;;;;;;6.30;3.85;;;22.60;90.70;;;;;;5052965;28;20421;-86
2022/07/01 00:11:14;;;;;;;3.80;3.40;;;22.50;90.80;;;;;;5033020;28;20033;-86
2022/07/01 00:13:40;;;;;;;4.70;3.70;;;22.50;90.80;;;;;;5017889;28;20036;-86
2022/07/01 00:16:06;;;;;;;3.58;3.25;;;22.50;91.00;;;;;;5041261;28;20040;-85
2022/07/01 00:18:32;;;;;;;4.43;3.60;;;22.40;91.10;;;;;;5033043;28;20033;-86
2022/07/01 00:21:00;;;;;;;6.10;3.80;;;22.40;91.30;;;;;;5005456;28;20128;-86
2022/07/01 00:23:27;;;;;;;3.70;3.40;;;22.40;91.40;;;;;;5061409;28;20633;-86
2022/07/01 00:25:53;;;;;;;3.90;3.50;;;22.30;91.70;;;;;;5030821;28;20132;-87
2022/07/01 00:28:19;;;;;;;4.20;3.38;;;22.20;91.60;;;;;;5039030;28;20517;-87
2022/07/01 00:30:45;;;;;;;4.78;3.60;;;22.20;91.80;;;;;;5036444;28;20550;-86
2022/07/01 00:33:11;;;;;;;4.13;3.30;;;22.10;91.60;;;;;;5035880;28;20059;-86
2022/07/01 00:35:37;;;;;;;4.22;3.30;;;22.10;91.90;;;;;;5052665;28;20483;-85
2022/07/01 00:38:03;;;;;;;6.68;3.83;;;22.10;92.00;;;;;;5035877;28;20032;-86
2022/07/01 00:40:29;;;;;;;4.63;3.20;;;22.10;92.20;;;;;;5052430;28;20043;-85
2022/07/01 00:42:55;;;;;;;3.42;3.13;;;22.10;92.40;;;;;;5019575;28;20510;-87
2022/07/01 00:45:21;;;;;;;5.57;3.50;;;22.10;92.50;;;;;;5050801;28;20039;-86
2022/07/01 00:47:49;;;;;;;4.03;3.15;;;22.10;92.60;;;;;;5027917;28;20040;-87
2022/07/01 00:50:16;;;;;;;4.28;3.67;;;22.00;92.80;;;;;;5053767;28;20044;-85
2022/07/01 00:52:44;;;;;;;3.50;3.20;;;22.00;93.40;;;;;;5036146;28;20033;-87
2022/07/01 00:55:12;;;;;;;4.45;3.13;;;22.00;93.00;;;;;;5052949;28;20032;-86
2022/07/01 00:57:40;;;;;;;3.95;3.22;;;22.00;93.00;;;;;;5032485;28;20032;-85
2022/07/01 01:00:15;;;;;;;4.55;3.35;;;21.90;93.00;;;;;;5040319;28;20032;-85
2022/07/01 01:02:41;;;;;;;5.15;3.25;;;21.90;93.30;;;;;;5011976;28;20036;-85
2022/07/01 01:05:08;;;;;;;4.95;3.20;;;21.90;93.30;;;;;;5016905;28;20048;-87
2022/07/01 01:07:34;;;;;;;3.38;3.05;;;21.80;93.40;;;;;;5017093;28;20410;-86
2022/07/01 01:10:01;;;;;;;3.20;2.65;;;21.70;93.80;;;;;;5035317;28;20453;-85
2022/07/01 01:12:28;;;;;;;4.30;2.95;;;21.60;94.00;;;;;;5035425;28;20064;-86
2022/07/01 01:14:55;;;;;;;5.60;2.70;;;21.60;94.50;;;;;;5051964;28;20525;-86
2022/07/01 01:17:23;;;;;;;3.13;2.85;;;21.50;94.50;;;;;;5035510;28;20483;-86
2022/07/01 01:19:50;;;;;;;3.67;2.95;;;21.40;94.60;;;;;;5051710;28;20031;-87
2022/07/01 01:22:18;;;;;;;3.17;2.75;;;21.40;94.90;;;;;;5033948;28;20098;-88
2022/07/01 01:24:47;;;;;;;2.80;2.60;;;21.30;95.00;;;;;;5016583;28;20035;-88
2022/07/01 01:27:13;;;;;;;4.05;3.10;;;21.30;95.20;;;;;;5030009;28;20082;-86
2022/07/01 01:29:39;;;;;;;3.47;2.65;;;21.30;95.60;;;;;;5015902;28;20529;-86
2022/07/01 01:32:06;;;;;;;2.85;2.40;;;21.20;95.90;;;;;;5035910;28;20033;-86
2022/07/01 01:34:33;;;;;;;3.35;2.80;;;21.10;96.00;;;;;;5036208;28;20398;-87
2022/07/01 01:36:59;;;;;;;4.72;3.33;;;21.00;96.30;;;;;;5069964;28;20021;-86
2022/07/01 01:39:25;;;;;;;3.38;3.05;;;21.00;96.90;;;;;;5035366;28;20028;-85
2022/07/01 01:41:51;;;;;;;3.08;2.80;;;21.00;97.10;;;;;;5035904;28;20036;-86
2022/07/01 01:44:18;;;;;;;4.43;2.75;;;20.90;97.30;;;;;;5022830;28;20029;-86
2022/07/01 01:46:44;;;;;;;6.35;2.75;;;20.90;97.40;;;;;;5036167;28;20091;-86
2022/07/01 01:49:10;;;;;;;3.03;2.80;;;20.90;97.80;;;;;;5019240;28;20037;-86
2022/07/01 01:51:37;;;;;;;3.97;3.15;;;20.90;98.30;;;;;;5035705;28;20037;-88
2022/07/01 01:54:03;;;;;;;3.47;3.15;;;20.90;98.30;;;;;;5052797;28;20549;-88
2022/07/01 01:56:29;;;;;;;2.83;2.63;;;20.90;98.80;;;;;;5037188;28;20402;-87
2022/07/01 01:58:55;;;;;;;3.03;2.83;;;20.80;99.10;;;;;;5055965;28;20028;-88
2022/07/01 02:01:22;;;;;;;4.57;2.75;;;20.80;99.30;;;;;;5008388;28;20483;-86
2022/07/01 02:03:49;;;;;;;4.05;2.88;;;20.70;99.80;;;;;;5035472;28;20454;-85
2022/07/01 02:06:17;;;;;;;4.97;2.65;;;20.70;99.90;;;;;;5042262;28;20402;-87
2022/07/01 02:08:43;;;;;;;3.15;2.85;;;20.60;99.90;;;;;;5055721;28;20123;-87
2022/07/01 02:11:10;;;;;;;5.65;3.17;;;20.60;99.90;;;;;;5038413;28;20128;-87
2022/07/01 02:13:36;;;;;;;3.28;2.72;;;20.50;99.90;;;;;;5055170;28;20425;-87
2022/07/01 02:16:03;;;;;;;3.25;2.95;;;20.50;99.90;;;;;;5055554;28;20454;-85
2022/07/01 02:18:30;;;;;;;3.65;2.75;;;20.40;99.90;;;;;;5043165;28;20093;-87
2022/07/01 02:20:55;;;;;;;2.80;2.60;;;20.40;99.90;;;;;;5048943;28;20087;-87
2022/07/01 02:23:21;;;;;;;6.55;2.97;;;20.40;99.90;;;;;;5053038;28;20499;-87
2022/07/01 02:25:48;;;;;;;5.60;2.88;;;20.40;99.90;;;;;;5054950;28;20036;-88
2022/07/01 02:28:14;;;;;;;3.55;2.70;;;20.40;99.90;;;;;;5038821;28;20028;-87
2022/07/01 02:30:41;;;;;;;5.22;2.83;;;20.30;99.90;;;;;;5038214;28;20040;-87
2022/07/01 02:33:07;;;;;;;3.10;2.80;;;20.20;99.90;;;;;;5022298;28;20071;-86
2022/07/01 02:35:38;;;;;;;6.05;3.22;;;20.20;99.90;;;;;;5037741;28;20025;-87
2022/07/01 02:38:05;;;;;;;3.33;2.70;;;20.10;99.90;;;;;;5055109;28;20025;-87
2022/07/01 02:40:33;;;;;;;3.35;2.55;;;20.10;99.90;;;;;;5054225;28;20685;-85
2022/07/01 02:42:58;;;;;;;3.03;2.72;;;20.00;99.90;;;;;;5021954;28;20059;-88
2022/07/01 02:45:27;;;;;;;3.03;2.70;;;20.00;99.90;;;;;;5021386;28;20475;-87
2022/07/01 02:47:53;;;;;;;4.90;3.03;;;20.00;99.90;;;;;;5023257;28;20060;-87
2022/07/01 02:50:19;;;;;;;3.38;2.58;;;20.00;99.90;;;;;;5054069;28;20059;-85
2022/07/01 02:52:45;;;;;;;3.35;2.95;;;20.00;99.90;;;;;;5052721;28;20108;-86
2022/07/01 02:55:13;;;;;;;5.55;3.17;;;20.00;99.90;;;;;;5053764;28;20036;-87
2022/07/01 02:57:40;;;;;;;6.55;3.08;;;20.00;99.90;;;;;;5055193;28;20039;-88
2022/07/01 03:00:09;;;;;;;8.13;2.72;;;19.90;99.90;;;;;;5017929;28;20033;-86
2022/07/01 03:02:36;;;;;;;2.75;2.45;;;19.90;99.90;;;;;;5018206;28;20029;-86
2022/07/01 03:05:02;;;;;;;2.47;2.25;;;19.80;99.90;;;;;;5018015;28;20029;-86
2022/07/01 03:07:28;;;;;;;3.35;2.63;;;19.80;99.90;;;;;;5037511;28;20075;-86
2022/07/01 03:09:58;;;;;;;4.30;2.70;;;19.70;99.90;;;;;;5034558;28;20441;-84
2022/07/01 03:12:24;;;;;;;3.03;2.70;;;19.70;99.90;;;;;;5037876;28;20221;-85
2022/07/01 03:15:01;;;;;;;2.40;2.20;;;19.60;99.90;;;;;;5037528;28;20056;-88
2022/07/01 03:17:30;;;;;;;4.53;2.47;;;19.60;99.90;;;;;;5037726;28;20032;-87
2022/07/01 03:19:57;;;;;;;4.00;2.42;;;19.60;99.90;;;;;;5053512;28;20028;-88
2022/07/01 03:22:25;;;;;;;3.67;2.80;;;19.60;99.90;;;;;;5034605;28;20171;-86
2022/07/01 03:24:51;;;;;;;2.83;2.55;;;19.60;99.90;;;;;;5036370;28;20025;-86
2022/07/01 03:27:18;;;;;;;4.43;2.70;;;19.60;99.90;;;;;;5030781;28;20483;-86
2022/07/01 03:29:44;;;;;;;3.45;2.28;;;19.60;99.90;;;;;;5035457;28;20119;-85
2022/07/01 03:32:10;;;;;;;2.92;2.63;;;19.60;99.90;;;;;;5037182;28;20510;-87
2022/07/01 03:34:41;;;;;;;3.72;2.80;;;19.50;99.90;;;;;;5045207;28;20023;-85
2022/07/01 03:37:09;;;;;;;2.70;2.50;;;19.50;99.90;;;;;;5049789;28;20113;-85
2022/07/01 03:39:36;;;;;;;4.28;2.75;;;19.50;99.90;;;;;;5035619;28;20479;-86
2022/07/01 03:42:04;;;;;;;3.03;2.72;;;19.50;99.90;;;;;;5049854;28;20037;-85
2022/07/01 03:44:30;;;;;;;2.60;2.40;;;19.40;99.90;;;;;;5050370;28;20080;-85
2022/07/01 03:46:56;;;;;;;3.65;2.42;;;19.40;99.90;;;;;;5053220;28;20032;-86
2022/07/01 03:49:22;;;;;;;2.92;2.63;;;19.40;99.90;;;;;;5068984;28;20468;-85
2022/07/01 03:51:49;;;;;;;2.83;2.35;;;19.40;99.90;;;;;;5037156;28;20029;-86
2022/07/01 03:54:30;;;;;;;3.17;2.08;;;19.40;99.90;;;;;;5050244;28;20029;-85
2022/07/01 03:56:56;;;;;;;3.08;2.25;;;19.40;99.90;;;;;;5053289;28;20119;-85
2022/07/01 03:59:22;;;;;;;4.55;2.50;;;19.40;99.90;;;;;;5032569;28;20095;-85
2022/07/01 04:01:48;;;;;;;2.58;2.22;;;19.40;99.90;;;;;;5036854;28;20490;-86
2022/07/01 04:04:14;;;;;;;4.30;2.67;;;19.40;99.90;;;;;;5019611;28;20036;-85
2022/07/01 04:06:39;;;;;;;2.97;2.40;;;19.50;99.90;;;;;;5052651;28;20060;-85
2022/07/01 04:09:05;;;;;;;3.40;2.50;;;19.50;99.90;;;;;;5035791;28;20037;-84
2022/07/01 04:11:32;;;;;;;2.45;2.25;;;19.50;99.90;;;;;;5069662;28;20491;-85
2022/07/01 04:13:57;;;;;;;2.50;2.33;;;19.50;99.90;;;;;;5036132;28;20102;-85
2022/07/01 04:16:25;;;;;;;2.53;2.33;;;19.50;99.90;;;;;;5023185;28;20487;-85
2022/07/01 04:18:52;;;;;;;3.03;2.15;;;19.50;99.90;;;;;;5003816;28;20099;-85
2022/07/01 04:24:01;;;;;;;3.25;2.50;;;19.50;99.90;;;;;;5027306;28;20057;-86
2022/07/01 04:26:27;;;;;;;2.63;2.30;;;19.40;99.90;;;;;;5003683;28;20483;-85
2022/07/01 04:28:54;;;;;;;5.32;2.50;;;19.40;99.90;;;;;;5035712;28;20036;-85
2022/07/01 04:31:21;;;;;;;4.57;2.50;;;19.50;99.90;;;;;;5019212;28;20055;-86
2022/07/01 04:33:48;;;;;;;2.88;2.38;;;19.50;99.90;;;;;;5017494;28;20044;-86
2022/07/01 04:36:14;;;;;;;2.63;2.00;;;19.40;99.90;;;;;;5038344;28;20075;-86
2022/07/01 04:38:40;;;;;;;2.55;2.20;;;19.50;99.90;;;;;;5001575;28;20031;-86
2022/07/01 04:43:50;;;;;;;2.10;2.00;;;19.60;99.90;;;;;;5068116;28;20029;-86
2022/07/01 04:46:16;;;;;;;2.17;1.98;;;19.60;99.90;;;;;;5038151;28;20036;-86
2022/07/01 04:48:42;;;;;;;2.65;2.45;;;19.60;99.90;;;;;;5040500;28;20490;-86
2022/07/01 04:51:08;;;;;;;3.20;2.35;;;19.60;99.90;;;;;;5053898;28;20028;-85
2022/07/01 04:53:34;;;;;;;2.25;2.15;;;19.60;99.90;;;;;;5038223;28;20036;-86
2022/07/01 04:56:00;;;;;;;2.17;1.98;;;19.70;99.90;;;;;;5044563;28;20108;-86
2022/07/01 04:58:26;;;;;;;2.47;2.28;;;19.70;99.90;;;;;;5033319;28;20111;-86
2022/07/01 05:00:52;;;;;;;9.25;2.45;;;19.70;99.90;;;;;;5035423;28;20040;-87
2022/07/01 05:03:18;;;;;;;5.00;2.28;;;19.80;99.90;;;;;;5034792;28;20031;-87
2022/07/01 05:05:44;;;;;;;3.35;2.20;;;19.80;99.90;;;;;;5069528;28;20090;-87
2022/07/01 05:08:10;;;;;;;2.88;2.00;;;19.80;99.90;;;;;;5036276;28;20040;-86
2022/07/01 05:10:36;;;;;;;2.08;1.80;;;19.80;99.90;;;;;;5038973;28;20040;-85
2022/07/01 05:13:02;;;;;;;4.35;1.98;;;19.70;99.90;;;;;;5072181;28;20025;-86
2022/07/01 05:15:28;;;;;;;3.58;1.92;;;19.60;99.90;;;;;;5035081;28;20036;-85
2022/07/01 05:23:23;;;;;;;2.30;1.75;;;19.40;99.90;;;;;;5057392;28;20036;-86
2022/07/01 05:25:49;;;;;;;3.35;2.20;;;19.40;99.90;;;;;;5039629;28;20078;-87
2022/07/01 05:28:15;;;;;;;3.50;2.17;;;19.40;99.90;;;;;;5041685;28;20380;-85
2022/07/01 05:30:40;;;;;;;2.05;1.83;;;19.30;99.90;;;;;;5052475;28;20039;-86
2022/07/01 05:33:06;;;;;;;2.17;1.80;;;19.30;99.90;;;;;;5041339;28;20116;-85
2022/07/01 05:35:32;;;;;;;2.63;2.17;;;19.20;99.90;;;;;;5041661;28;20032;-85
2022/07/01 05:37:58;;;;;;;3.35;1.90;;;19.10;99.90;;;;;;5039684;28;20479;-84
2022/07/01 05:40:25;;;;;;;1.73;1.63;;;19.10;99.90;;;;;;5020628;28;20103;-84
2022/07/01 05:42:52;;;;;;;2.90;2.03;;;19.00;99.90;;;;;;5053102;28;20029;-84
2022/07/01 05:45:18;;;;;;;3.40;2.00;;;19.00;99.90;;;;;;5004472;28;20131;-84
2022/07/01 05:47:44;;;;;;;2.42;1.85;;;18.90;99.90;;;;;;5051938;28;20505;-85
2022/07/01 05:50:10;;;;;;;2.83;1.92;;;18.90;99.90;;;;;;5020250;28;20037;-85
2022/07/01 05:52:35;;;;;;;2.17;2.08;;;18.80;99.90;;;;;;5038209;28;20035;-84
2022/07/01 05:55:01;;;;;;;2.22;2.03;;;18.70;99.90;;;;;;5043116;28;20640;-85
2022/07/01 05:57:27;;;;;;;1.80;1.70;;;18.60;99.90;;;;;;5038875;28;20467;-84
2022/07/01 05:59:53;;;;;;;2.08;1.80;;;18.60;99.90;;;;;;5076200;28;20502;-84
2022/07/01 06:02:19;;;;;;;3.97;2.03;;;18.40;99.90;;;;;;5062027;28;20154;-84
2022/07/01 06:04:45;;;;;;;4.30;1.95;;;18.30;99.90;;;;;;5045361;28;20414;-87
2022/07/01 06:07:10;;;;;;;2.30;2.10;;;18.20;99.90;;;;;;5075354;28;20487;-89
2022/07/01 06:09:37;;;;;;;3.85;2.72;;;18.00;99.90;;;;;;5082646;28;20050;-90
2022/07/01 06:12:04;;;;;;;3.42;2.85;;;17.80;99.90;;;;;;5033908;28;20036;-88
2022/07/01 06:14:29;;;;;;;4.35;2.97;;;17.70;99.90;;;;;;5070617;28;20099;-86
2022/07/01 06:16:55;;;;;;;3.08;2.80;;;17.50;99.90;;;;;;5029457;28;20036;-88
2022/07/01 06:19:21;;;;;;;4.57;3.03;;;17.40;99.90;;;;;;5057158;28;20039;-87
2022/07/01 06:21:47;;;;;;;7.50;4.22;;;17.20;99.90;;;;;;5071959;28;20552;-87
2022/07/01 06:24:13;;;;;;;3.17;2.85;;;17.10;99.90;;;;;;5005146;28;20031;-88
2022/07/01 06:26:39;;;;;;;3.58;2.88;;;17.00;99.90;;;;;;5040891;28;20475;-88
2022/07/01 06:29:05;;;;;;;4.60;3.15;;;16.90;99.90;;;;;;5042516;28;20021;-88
2022/07/01 06:31:33;;;;;;;3.72;3.10;;;16.80;99.90;;;;;;5072902;28;20040;-89
2022/07/01 06:34:00;;;;;;;3.40;3.10;;;16.70;99.90;;;;;;5039169;28;20059;-87
2022/07/01 06:36:25;;;;;;;5.30;3.38;;;16.60;99.90;;;;;;5036163;28;20103;-87
2022/07/01 06:38:51;;;;;;;4.82;3.25;;;16.50;99.90;;;;;;5040355;28;20498;-87
2022/07/01 06:41:26;;;;;;;4.13;3.00;;;16.60;99.90;;;;;;5040620;28;20363;-88
2022/07/01 06:43:53;;;;;;;4.22;3.00;;;16.60;99.90;;;;;;5041866;28;20089;-87
2022/07/01 06:46:20;;;;;;;3.60;3.10;;;16.50;99.90;;;;;;5016584;28;20044;-88
2022/07/01 06:48:46;;;;;;;5.40;3.40;;;16.40;99.90;;;;;;5048306;28;20032;-88
2022/07/01 06:51:12;;;;;;;3.65;3.30;;;16.40;99.90;;;;;;5049563;28;20036;-86
2022/07/01 06:53:38;;;;;;;3.17;2.95;;;16.50;99.90;;;;;;5061503;28;20097;-88
2022/07/01 06:56:04;;;;;;;3.58;3.28;;;16.50;99.90;;;;;;5043024;28;20479;-87
2022/07/01 06:58:31;;;;;;;3.45;3.15;;;16.60;99.90;;;;;;5039189;28;20035;-88
2022/07/01 07:00:57;;;;;;;3.65;2.78;;;16.70;99.90;;;;;;5056026;28;20059;-87
2022/07/01 07:03:22;;;;;;;2.42;2.22;;;16.80;99.90;;;;;;5040998;28;20099;-88
2022/07/01 07:05:48;;;;;;;2.05;1.95;;;16.80;99.90;;;;;;5036041;28;20510;-88
2022/07/01 07:08:14;;;;;;;2.85;2.50;;;16.90;99.90;;;;;;5036194;28;20086;-89
2022/07/01 07:10:41;;;;;;;2.55;2.35;;;16.90;99.90;;;;;;5065275;28;20025;-88
2022/07/01 07:13:06;;;;;;;2.00;1.90;;;17.00;99.90;;;;;;5036328;28;20039;-88
2022/07/01 07:15:32;;;;;;;2.58;1.65;;;17.10;99.90;;;;;;5040363;28;20032;-89
2022/07/01 07:17:58;;;;;;;3.70;1.75;;;17.10;99.90;;;;;;5054700;28;20016;-87
2022/07/01 07:20:25;;;;;;;1.85;1.75;;;17.10;99.90;;;;;;5056671;28;20043;-89
2022/07/01 07:22:51;;;;;;;3.45;1.63;;;17.00;99.90;;;;;;5036819;28;20072;-89
2022/07/01 07:25:17;;;;;;;1.73;1.63;;;17.00;99.90;;;;;;5061439;28;20092;-88
2022/07/01 07:27:46;;;;;;;1.67;1.50;;;16.90;99.90;;;;;;5053374;28;20036;-89
2022/07/01 07:30:16;;;;;;;1.98;1.88;;;16.80;99.90;;;;;;5035242;28;20037;-89
2022/07/01 07:32:42;;;;;;;1.85;1.73;;;16.90;99.90;;;;;;5055083;28;20029;-91
2022/07/01 07:35:09;;;;;;;2.05;1.85;;;16.90;99.90;;;;;;5052765;28;20033;-90
2022/07/01 07:37:35;;;;;;;1.60;1.50;;;16.90;99.90;;;;;;5035599;28;20056;-89
2022/07/01 07:40:03;;;;;;;2.78;2.20;;;16.90;99.90;;;;;;5022498;28;20026;-89
2022/07/01 07:42:29;;;;;;;1.95;1.85;;;16.90;99.90;;;;;;5002647;28;20041;-90
2022/07/01 07:44:55;;;;;;;2.60;2.10;;;16.90;99.90;;;;;;5023524;28;20032;-88
2022/07/01 07:47:21;;;;;;;2.22;2.03;;;16.90;99.90;;;;;;5006128;28;20138;-88
2022/07/01 07:49:47;;;;;;;3.13;2.17;;;16.90;99.90;;;;;;5021631;28;20558;-87
2022/07/01 07:52:13;;;;;;;2.72;2.53;;;16.80;99.90;;;;;;5020875;28;20039;-88
2022/07/01 07:54:39;;;;;;;3.22;2.28;;;16.70;99.90;;;;;;5050570;28;20120;-88
2022/07/01 07:57:06;;;;;;;3.45;2.28;;;16.60;99.90;;;;;;5047043;28;20032;-87
2022/07/01 07:59:32;;;;;;;2.58;2.38;;;16.60;99.90;;;;;;5053450;28;20683;-87
2022/07/01 08:01:58;;;;;;;2.63;2.30;;;16.60;99.90;;;;;;5037904;28;20028;-88
2022/07/01 08:04:24;;;;;;;4.78;2.42;;;16.60;99.90;;;;;;5043971;28;20056;-87
2022/07/01 08:06:49;;;;;;;2.50;2.30;;;16.70;99.90;;;;;;5047459;28;20059;-88
2022/07/01 08:09:15;;;;;;;2.63;2.38;;;16.80;99.90;;;;;;5037061;28;20089;-85
2022/07/01 08:11:41;;;;;;;2.22;2.03;;;17.00;99.90;;;;;;5037537;28;20368;-89
2022/07/01 08:14:07;;;;;;;2.60;1.65;;;17.00;99.90;;;;;;5037663;28;20542;-88
2022/07/01 08:16:33;;;;;;;2.38;2.17;;;17.10;99.90;;;;;;5017086;28;20045;-87
2022/07/01 08:18:59;;;;;;;2.35;2.15;;;17.20;99.90;;;;;;5033655;28;20025;-89
2022/07/01 08:21:24;;;;;;;2.65;2.00;;;17.20;99.90;;;;;;5021885;28;20124;-88
2022/07/01 08:23:50;;;;;;;2.00;1.75;;;17.20;99.90;;;;;;5051743;28;20491;-87
2022/07/01 08:26:17;;;;;;;3.13;1.98;;;17.20;99.90;;;;;;5055098;28;20037;-89
2022/07/01 08:28:43;;;;;;;2.92;1.58;;;17.20;99.90;;;;;;5040044;28;20028;-87
2022/07/01 08:31:10;;;;;;;2.65;2.10;;;17.10;99.90;;;;;;5042383;28;20393;-88
2022/07/01 08:33:37;;;;;;;3.13;2.33;;;17.10;99.90;;;;;;5065160;28;20100;-88
2022/07/01 08:36:07;;;;;;;2.85;2.08;;;17.10;99.90;;;;;;5018339;28;20064;-87
2022/07/01 08:38:33;;;;;;;2.22;2.03;;;17.00;99.90;;;;;;5020878;28;20085;-88
2022/07/01 08:41:00;;;;;;;3.75;2.20;;;17.00;99.90;;;;;;5034164;28;20029;-88
2022/07/01 08:43:26;;;;;;;4.18;1.90;;;17.00;99.90;;;;;;5033930;28;20086;-87
2022/07/01 08:45:52;;;;;;;2.03;1.85;;;16.90;99.90;;;;;;5014432;28;20045;-87
2022/07/01 08:48:18;;;;;;;2.00;1.60;;;16.80;99.90;;;;;;4999065;28;20029;-88
2022/07/01 08:50:44;;;;;;;2.13;1.90;;;16.80;99.90;;;;;;5019001;28;20395;-88
2022/07/01 08:53:11;;;;;;;1.77;1.67;;;16.70;99.90;;;;;;5038274;28;20104;-85
2022/07/01 08:58:23;;;;;;;1.88;1.77;;;16.60;99.90;;;;;;5052911;28;20024;-89
2022/07/01 09:00:49;;;;;;;2.08;1.40;;;16.60;99.90;;;;;;5044736;28;20037;-87
2022/07/01 09:03:15;;;;;;;1.38;1.27;;;16.60;99.90;;;;;;5037824;28;20642;-88
2022/07/01 09:05:49;;;;;;;2.85;1.50;;;16.60;99.90;;;;;;5055918;28;20068;-89
2022/07/01 09:08:15;;;;;;;1.65;1.50;;;16.60;99.90;;;;;;5040149;28;20039;-88
2022/07/01 09:10:41;;;;;;;1.33;1.23;;;16.60;99.90;;;;;;5041330;28;20032;-88
2022/07/01 09:13:08;;;;;;;1.73;1.63;;;16.60;99.90;;;;;;5039677;28;20033;-88
2022/07/01 09:15:35;;;;;;;1.85;1.67;;;16.60;99.90;;;;;;5039056;28;20047;-89
2022/07/01 09:18:17;;;;;;;1.77;1.67;;;16.60;99.90;;;;;;5039668;28;20035;-88
2022/07/01 09:20:47;;;;;;;2.25;1.88;;;16.70;99.90;;;;;;5039633;28;20119;-88
2022/07/01 09:23:15;;;;;;;2.13;1.80;;;16.60;99.90;;;;;;5039409;28;20043;-88
2022/07/01 09:25:47;;;;;;;2.72;1.98;;;16.60;99.90;;;;;;5038954;28;20043;-89
2022/07/01 09:28:18;;;;;;;1.85;1.67;;;16.60;99.90;;;;;;5039885;28;20128;-88
2022/07/01 09:30:52;;;;;;;3.13;2.13;;;16.60;99.90;;;;;;5054977;28;20046;-88
2022/07/01 09:33:26;;;;;;;2.40;2.05;;;16.60;99.90;;;;;;5033509;28;20028;-87
2022/07/01 09:35:53;;;;;;;2.67;2.08;;;16.60;99.90;;;;;;5031819;28;20024;-89
2022/07/01 09:38:25;;;;;;;2.78;2.00;;;16.60;99.90;;;;;;5037436;28;20533;-88
2022/07/01 09:40:57;;;;;;;2.20;1.90;;;16.70;99.90;;;;;;5049932;28;20029;-88
2022/07/01 09:43:32;;;;;;;2.22;1.88;;;16.80;99.90;;;;;;5054212;28;20616;-89
2022/07/01 09:46:05;;;;;;;2.38;2.15;;;16.80;99.90;;;;;;5053202;28;20174;-88
2022/07/01 09:48:34;;;;;;;2.30;2.05;;;16.90;99.90;;;;;;5054040;28;20040;-87
2022/07/01 09:51:05;;;;;;;2.28;2.08;;;17.00;99.90;;;;;;5053571;28;20028;-89
2022/07/01 09:53:31;;;;;;;2.97;2.17;;;17.00;99.90;;;;;;5038013;28;20032;-88
2022/07/01 09:55:58;;;;;;;2.35;1.85;;;17.10;99.90;;;;;;5037515;28;20032;-89
2022/07/01 09:58:24;;;;;;;2.40;2.20;;;17.10;99.90;;;;;;5054197;28;20029;-89
2022/07/01 10:00:52;;;;;;;2.83;2.17;;;17.10;99.90;;;;;;5050876;28;20028;-88
2022/07/01 10:03:19;;;;;;;2.28;2.00;;;17.10;99.90;;;;;;5050649;28;20057;-88
2022/07/01 10:05:56;;;;;;;2.20;2.00;;;17.10;99.90;;;;;;5055342;28;20848;-88
2022/07/01 10:08:40;;;;;;;2.35;1.80;;;17.10;99.90;;;;;;5040162;28;20037;-86
2022/07/01 10:11:34;;;;;;;2.25;2.05;;;17.10;99.90;;;;;;5055611;28;20110;-88
2022/07/01 10:14:04;;;;;;;2.70;2.38;;;17.20;99.90;;;;;;5037781;28;20036;-88
2022/07/01 10:16:31;;;;;;;2.63;1.90;;;17.20;99.90;;;;;;5038119;28;20033;-88
2022/07/01 10:18:57;;;;;;;3.47;2.22;;;17.20;99.90;;;;;;5055317;28;20029;-87
2022/07/01 10:21:32;;;;;;;2.10;1.90;;;17.30;99.90;;;;;;5020754;28;20048;-88
2022/07/01 10:24:15;;;;;;;2.00;1.90;;;17.30;99.90;;;;;;5021032;28;20028;-88
2022/07/01 10:26:42;;;;;;;2.35;2.00;;;17.30;99.90;;;;;;5053361;28;20089;-87
2022/07/01 10:29:38;;;;;;;2.70;1.70;;;17.30;99.90;;;;;;5034611;28;20040;-88
2022/07/01 10:32:26;;;;;;;2.47;2.00;;;17.40;99.90;;;;;;5025158;28;20071;-87
2022/07/01 10:35:04;;;;;;;2.88;2.47;;;17.40;99.90;;;;;;5036800;28;20052;-88
2022/07/01 10:37:29;;;;;;;3.58;2.58;;;17.40;99.90;;;;;;5053054;28;20090;-88
2022/07/01 10:40:00;;;;;;;2.47;1.80;;;17.40;99.90;;;;;;5019167;28;20449;-88
2022/07/01 10:42:53;;;;;;;2.45;2.08;;;17.50;99.90;;;;;;5033645;28;20480;-88
2022/07/01 10:45:19;;;;;;;3.20;2.60;;;17.60;99.90;;;;;;5052506;28;20111;-85
2022/07/01 10:47:45;;;;;;;3.30;2.65;;;17.80;99.90;;;;;;5049395;28;20121;-88
2022/07/01 10:50:15;;;;;;;3.03;2.42;;;17.90;99.90;;;;;;5031678;28;20041;-87
2022/07/01 10:53:00;;;;;;;3.65;2.97;;;18.10;99.90;;;;;;5034773;28;20048;-88
2022/07/01 10:55:37;;;;;;;2.90;2.60;;;18.20;99.90;;;;;;5033715;28;20094;-87
2022/07/01 10:58:02;;;;;;;3.00;2.65;;;18.20;99.90;;;;;;5052117;28;20372;-87
2022/07/01 11:00:31;;;;;;;2.80;2.30;;;18.30;99.90;;;;;;5019063;28;20090;-87
2022/07/01 11:03:11;;;;;;;4.35;2.25;;;18.40;99.90;;;;;;5051612;28;20102;-88
2022/07/01 11:05:39;;;;;;;3.20;2.65;;;18.50;99.90;;;;;;5051644;28;20055;-86
2022/07/01 11:08:06;;;;;;;3.78;2.50;;;18.50;99.90;;;;;;5034250;28;20491;-88
2022/07/01 11:10:32;;;;;;;2.80;2.50;;;18.60;99.90;;;;;;5018095;28;20075;-87
2022/07/01 11:13:00;;;;;;;3.25;2.78;;;18.70;99.90;;;;;;5047650;28;20024;-87
2022/07/01 11:15:28;;;;;;;2.60;2.25;;;18.80;99.90;;;;;;5027043;28;20407;-88
2022/07/01 11:17:56;;;;;;;3.63;2.58;;;18.90;99.90;;;;;;5033463;28;20029;-86
2022/07/01 11:20:23;;;;;;;2.95;2.30;;;18.90;99.90;;;;;;5052816;28;20025;-87
2022/07/01 11:22:49;;;;;;;3.28;2.55;;;18.90;99.90;;;;;;5054738;28;20506;-88
2022/07/01 11:25:14;;;;;;;2.33;2.00;;;18.90;99.90;;;;;;5037569;28;20103;-86
2022/07/01 11:27:46;;;;;;;2.60;2.10;;;18.90;99.90;;;;;;5054764;28;20032;-87
2022/07/01 11:30:12;;;;;;;2.58;2.03;;;18.80;99.90;;;;;;5054389;28;20025;-87
2022/07/01 11:32:44;;;;;;;3.30;2.22;;;18.70;99.90;;;;;;5037711;28;20123;-87
2022/07/01 11:41:21;;;;;;;2.63;1.83;;;18.20;99.90;;;;;;5042529;28;20035;-87
2022/07/01 11:43:47;;;;;;;2.75;1.85;;;18.00;99.90;;;;;;5057228;28;20090;-87
2022/07/01 11:46:13;;;;;;;2.25;1.83;;;17.80;99.90;;;;;;5038103;28;20074;-88
2022/07/01 11:48:42;;;;;;;1.58;1.40;;;17.70;99.90;;;;;;5054583;28;20082;-85
2022/07/01 11:51:13;;;;;;;2.25;2.00;;;17.60;99.90;;;;;;5037900;28;20086;-88
2022/07/01 11:53:51;;;;;;;2.25;1.70;;;17.60;99.90;;;;;;5015000;28;20511;-87
2022/07/01 11:56:27;;;;;;;1.67;1.50;;;17.40;99.90;;;;;;5045375;28;20025;-87
2022/07/01 11:58:53;;;;;;;2.45;1.67;;;17.40;99.90;;;;;;5051986;28;20136;-89
2022/07/01 12:01:24;;;;;;;2.00;1.80;;;17.30;99.90;;;;;;5048427;28;20040;-87
2022/07/01 12:03:52;;;;;;;4.00;2.13;;;17.30;99.90;;;;;;5052055;28;20134;-87
2022/07/01 12:06:19;;;;;;;3.15;1.35;;;17.30;99.90;;;;;;5020958;28;20059;-87
2022/07/01 12:08:46;;;;;;;4.38;1.65;;;17.30;99.90;;;;;;5047451;28;20483;-88
2022/07/01 12:11:13;;;;;;;1.85;1.27;;;17.20;99.90;;;;;;5037562;28;20040;-87
2022/07/01 12:13:38;;;;;;;2.65;2.03;;;17.20;99.90;;;;;;5031729;28;20032;-86
2022/07/01 12:16:11;;;;;;;1.23;1.10;;;17.10;99.90;;;;;;5018919;28;20028;-87
2022/07/01 12:18:37;;;;;;;2.42;1.55;;;16.90;99.90;;;;;;5035368;28;20037;-86
2022/07/01 12:21:04;;;;;;;1.55;1.45;;;16.80;99.90;;;;;;5031851;28;20094;-86
2022/07/01 12:23:32;;;;;;;2.50;1.50;;;16.70;99.90;;;;;;5035027;28;20040;-86
2022/07/01 12:25:58;;;;;;;1.90;1.70;;;16.60;99.90;;;;;;5035253;28;20056;-87
2022/07/01 12:28:39;;;;;;;1.45;1.27;;;16.60;99.90;;;;;;5034636;28;20035;-87
2022/07/01 12:31:10;;;;;;;3.08;1.50;;;16.60;99.90;;;;;;5050202;28;20032;-86
2022/07/01 12:33:37;;;;;;;1.42;1.33;;;16.60;99.90;;;;;;5021529;28;20063;-87
2022/07/01 12:36:05;;;;;;;1.48;1.38;;;16.50;99.90;;;;;;5065098;28;20036;-85
2022/07/01 12:38:32;;;;;;;1.55;1.35;;;16.50;99.90;;;;;;5042777;28;20017;-87
2022/07/01 12:40:58;;;;;;;3.88;1.00;;;16.50;99.90;;;;;;5064848;28;20064;-88
2022/07/01 12:43:31;;;;;;;1.77;1.08;;;16.60;99.90;;;;;;5034353;28;20112;-86
2022/07/01 12:46:01;;;;;;;1.40;1.30;;;16.50;99.90;;;;;;5034423;28;20032;-87
2022/07/01 12:48:27;;;;;;;3.65;1.80;;;16.50;99.90;;;;;;5029684;28;20571;-88
2022/07/01 12:50:56;;;;;;;3.80;1.30;;;16.50;99.90;;;;;;5019615;28;20044;-86
2022/07/01 12:53:23;;;;;;;1.30;1.20;;;16.40;99.90;;;;;;5017289;28;20056;-87
2022/07/01 12:55:50;;;;;;;1.60;1.50;;;16.40;99.90;;;;;;5017172;28;20036;-87
2022/07/01 12:58:24;;;;;;;1.50;1.40;;;16.50;99.90;;;;;;5047038;28;20025;-87
2022/07/01 13:00:57;;;;;;;1.33;1.23;;;16.50;99.90;;;;;;5015551;28;20077;-87
2022/07/01 13:03:25;;;;;;;1.35;1.23;;;16.60;99.90;;;;;;5042238;28;20036;-88
2022/07/01 13:05:52;;;;;;;2.58;1.70;;;16.60;99.90;;;;;;5050201;28;20037;-87
2022/07/01 13:08:19;;;;;;;1.52;1.20;;;16.60;99.90;;;;;;5016715;28;20039;-87
2022/07/01 13:10:45;;;;;;;2.22;1.52;;;16.70;99.90;;;;;;5044482;28;20037;-86